Time;durP1;ratioP1;P1;durP2;ratioP2;P2;SDS_P1;SDS_P2;PMS_P1;PMS_P2;Temp;Humidity;BMP_temperature;BMP_pressure;BME280_temperature;BME280_humidity;BME280_pressure;Samples;Min_cycle;Max_cycle;Signal;HPM_P1;HPM_P2
2022/07/04 00:00:07;;;;;;;;;;;;;;;;;;;;;
2022/07/04 00:03:00;;;;;;;4.60;3.40;;;;;;;19.43;58.13;100511.05;109688;1262;23688;-80
2022/07/04 00:05:40;;;;;;;5.50;2.90;;;;;;;19.37;58.35;100510.60;109886;1258;23584;-80
2022/07/04 00:08:29;;;;;;;3.50;2.90;;;;;;;19.30;58.47;100505.72;110432;1258;21990;-79
2022/07/04 00:11:18;;;;;;;6.90;3.20;;;;;;;19.22;58.72;100502.35;110221;1258;23789;-79
2022/07/04 00:14:07;;;;;;;6.00;3.10;;;;;;;19.16;58.92;100507.14;110418;1258;22350;-78
2022/07/04 00:16:45;;;;;;;4.90;3.30;;;;;;;19.09;59.13;100504.98;109937;1259;23067;-80
2022/07/04 00:23:21;;;;;;;;;;;;;;;;;;;;;
2022/07/04 00:26:59;;;;;;;6.30;3.40;;;;;;;18.84;60.01;100499.36;109372;1267;23000;-82
2022/07/04 00:30:41;;;;;;;;;;;;;;;;;;;;;
2022/07/04 00:33:56;;;;;;;4.70;3.00;;;;;;;18.68;60.67;100495.17;110208;1260;23038;-79
2022/07/04 00:36:54;;;;;;;6.80;3.50;;;;;;;18.65;60.80;100495.92;109250;1266;23703;-79
2022/07/04 00:39:55;;;;;;;;;;;;;;;;;;;;;
2022/07/04 00:42:49;;;;;;;6.90;3.70;;;;;;;18.64;61.10;100490.30;110017;1260;21992;-79
2022/07/04 00:45:42;;;;;;;5.70;2.80;;;;;;;18.63;61.12;100488.86;109946;1259;21967;-78
2022/07/04 00:48:20;;;;;;;4.50;3.50;;;;;;;18.61;61.04;100484.39;110332;1256;21984;-79
2022/07/04 00:51:04;;;;;;;6.00;4.00;;;;;;;18.62;61.49;100485.00;110066;1258;22016;-79
2022/07/04 00:58:06;;;;;;;5.20;2.80;;;;;;;18.64;61.75;100483.95;109342;1267;21996;-79
2022/07/04 01:01:13;;;;;;;5.80;3.30;;;;;;;18.63;61.65;100482.33;109017;1270;21987;-79
2022/07/04 01:04:03;;;;;;;4.50;3.20;;;;;;;18.62;61.74;100480.15;108734;1270;22024;-80
2022/07/04 01:07:25;;;;;;;7.70;3.10;;;;;;;18.60;61.76;100481.85;108448;1276;21996;-79
2022/07/04 01:10:01;;;;;;;7.20;3.10;;;;;;;18.55;61.97;100481.84;108674;1273;22008;-80
2022/07/04 01:12:39;;;;;;;4.60;3.40;;;;;;;18.53;61.99;100483.45;108722;1273;22640;-81
2022/07/04 01:16:04;;;;;;;7.30;3.70;;;;;;;18.51;62.02;100482.68;108656;1276;22443;-81
2022/07/04 01:19:00;;;;;;;6.50;4.20;;;;;;;18.48;62.13;100473.70;108733;1273;22047;-79
2022/07/04 01:22:27;;;;;;;;;;;;;;;;;;;;;
2022/07/04 01:25:16;;;;;;;;;;;;;;;;;;;;;
2022/07/04 01:27:54;;;;;;;6.30;4.00;;;;;;;18.43;62.39;100480.11;108410;1276;23750;-80
2022/07/04 01:30:33;;;;;;;6.00;4.70;;;;;;;18.41;62.30;100479.52;108369;1274;21996;-79
2022/07/04 01:33:09;;;;;;;5.20;4.20;;;;;;;18.37;62.50;100476.73;108559;1273;23793;-78
2022/07/04 01:35:39;;;;;;;7.50;4.50;;;;;;;18.35;62.52;100481.66;109040;1264;22013;-79
2022/07/04 01:38:08;;;;;;;5.30;3.70;;;;;;;18.33;62.66;100478.28;109801;1257;22304;-79
2022/07/04 01:40:40;;;;;;;6.90;3.40;;;;;;;18.31;62.81;100474.10;110228;1258;23070;-79
2022/07/04 01:43:09;;;;;;;4.90;3.70;;;;;;;18.29;62.99;100474.32;109985;1256;23023;-78
2022/07/04 01:45:41;;;;;;;8.00;4.20;;;;;;;18.26;62.79;100469.81;110109;1256;21990;-79
2022/07/04 01:48:12;;;;;;;6.40;4.20;;;;;;;18.20;62.71;100472.98;109771;1261;21985;-79
2022/07/04 01:50:41;;;;;;;5.70;4.90;;;;;;;18.15;62.96;100473.91;109602;1260;22016;-79
2022/07/04 01:53:10;;;;;;;6.90;4.00;;;;;;;18.07;63.03;100473.63;109806;1261;23597;-79
2022/07/04 01:55:39;;;;;;;5.60;3.90;;;;;;;18.00;63.29;100471.89;109600;1261;22024;-79
2022/07/04 01:58:09;;;;;;;5.60;4.70;;;;;;;18.00;63.80;100474.77;109675;1260;21986;-79
2022/07/04 02:03:27;;;;;;;6.90;4.40;;;;;;;17.97;63.80;100473.43;110210;1258;23489;-79
2022/07/04 02:05:58;;;;;;;6.40;3.80;;;;;;;17.94;63.87;100472.30;110326;1252;24280;-79
2022/07/04 02:09:14;;;;;;;10.80;3.80;;;;;;;17.94;64.01;100468.14;110683;1253;21959;-79
2022/07/04 02:11:20;;;;;;;11.50;4.70;;;;;;;17.92;64.09;100463.75;110564;1252;23141;-79
2022/07/04 02:13:50;;;;;;;5.30;4.70;;;;;;;17.90;64.16;100464.17;110704;1253;21969;-80
2022/07/04 02:16:19;;;;;;;4.50;3.90;;;;;;;17.86;64.01;100470.40;110722;1253;21972;-80
2022/07/04 02:18:48;;;;;;;7.00;4.40;;;;;;;17.81;64.08;100466.60;110545;1253;21990;-80
2022/07/04 02:21:17;;;;;;;11.20;6.20;;;;;;;17.76;64.11;100466.44;110308;1256;22279;-78
2022/07/04 02:23:46;;;;;;;7.50;4.70;;;;;;;17.72;64.43;100464.92;110034;1256;22071;-79
2022/07/04 02:26:15;;;;;;;6.80;4.40;;;;;;;17.68;64.67;100460.41;109546;1264;23067;-80
2022/07/04 02:28:44;;;;;;;6.20;4.30;;;;;;;17.65;64.72;100460.88;109577;1264;23767;-79
2022/07/04 02:31:16;;;;;;;6.30;4.00;;;;;;;17.62;64.80;100460.02;108846;1270;22486;-79
2022/07/04 02:33:48;;;;;;;7.80;4.50;;;;;;;17.61;65.05;100459.63;109339;1267;22048;-80
2022/07/04 02:36:19;;;;;;;7.40;5.00;;;;;;;17.62;65.19;100458.95;108946;1267;22447;-80
2022/07/04 02:38:48;;;;;;;7.00;5.00;;;;;;;17.59;65.02;100466.98;109330;1267;22071;-79
2022/07/04 02:41:19;;;;;;;11.20;5.40;;;;;;;17.53;64.95;100467.48;108877;1273;21993;-80
2022/07/04 02:43:51;;;;;;;9.70;5.20;;;;;;;17.50;65.25;100460.11;108963;1266;24282;-80
2022/07/04 02:46:20;;;;;;;9.40;5.30;;;;;;;17.49;65.32;100456.87;109604;1261;23676;-79
2022/07/04 02:48:49;;;;;;;9.60;5.40;;;;;;;17.50;65.44;100457.36;109288;1267;23042;-79
2022/07/04 02:51:18;;;;;;;8.80;5.40;;;;;;;17.51;65.37;100454.43;108934;1267;21966;-79
2022/07/04 02:53:50;;;;;;;7.10;5.40;;;;;;;17.45;65.15;100455.19;108935;1267;21993;-79
2022/07/04 02:56:19;;;;;;;7.40;6.30;;;;;;;17.41;65.56;100455.90;109361;1264;22506;-80
2022/07/04 02:58:49;;;;;;;8.70;5.50;;;;;;;17.41;65.76;100454.46;109890;1260;22359;-79
2022/07/04 03:01:36;;;;;;;8.90;5.80;;;;;;;17.45;65.98;100447.63;110080;1257;23761;-79
2022/07/04 03:04:08;;;;;;;7.60;5.70;;;;;;;17.47;65.82;100449.77;109839;1262;22893;-79
2022/07/04 03:06:39;;;;;;;8.30;4.80;;;;;;;17.50;65.97;100452.55;109533;1262;23042;-79
2022/07/04 03:09:09;;;;;;;14.40;6.60;;;;;;;17.51;65.97;100458.83;109850;1259;21965;-79
2022/07/04 03:11:44;;;;;;;11.10;6.20;;;;;;;17.52;65.89;100463.92;110205;1258;22027;-79
2022/07/04 03:14:13;;;;;;;10.90;5.80;;;;;;;17.52;65.93;100466.59;110215;1259;21967;-79
2022/07/04 03:16:46;;;;;;;9.00;6.30;;;;;;;17.51;65.94;100470.66;110173;1259;23170;-80
2022/07/04 03:19:22;;;;;;;12.20;6.30;;;;;;;17.49;65.85;100470.92;109939;1259;22018;-79
2022/07/04 03:21:54;;;;;;;14.50;6.40;;;;;;;17.49;66.02;100474.08;110182;1254;23568;-80
2022/07/04 03:24:23;;;;;;;13.60;6.60;;;;;;;17.51;65.97;100473.09;109769;1259;22018;-78
2022/07/04 03:26:52;;;;;;;9.50;7.50;;;;;;;17.53;66.06;100471.81;110316;1258;22191;-79
2022/07/04 03:29:23;;;;;;;8.50;6.00;;;;;;;17.58;66.13;100473.06;109396;1261;21954;-80
2022/07/04 03:31:53;;;;;;;6.90;6.10;;;;;;;17.62;66.10;100474.89;109739;1262;23223;-80
2022/07/04 03:34:23;;;;;;;7.20;6.50;;;;;;;17.66;66.08;100476.20;109632;1262;21992;-79
2022/07/04 03:36:55;;;;;;;8.70;7.10;;;;;;;17.69;65.97;100479.60;109754;1262;23049;-78
2022/07/04 03:39:24;;;;;;;8.20;6.70;;;;;;;17.69;65.84;100482.89;109602;1262;21988;-79
2022/07/04 03:41:53;;;;;;;11.40;7.70;;;;;;;17.68;65.80;100481.49;108975;1262;23069;-79
2022/07/04 03:44:22;;;;;;;12.40;7.50;;;;;;;17.65;65.77;100483.06;109626;1262;23681;-80
2022/07/04 03:46:53;;;;;;;7.20;6.50;;;;;;;17.63;65.93;100483.11;109742;1259;22528;-78
2022/07/04 03:49:22;;;;;;;;;;;;;;;17.63;66.11;100480.85;110447;1256;22894;-79
2022/07/04 03:51:51;;;;;;;7.40;6.60;;;;;;;17.58;66.46;100481.24;110378;1256;22078;-80
2022/07/04 03:54:20;;;;;;;11.40;7.80;;;;;;;17.61;66.47;100480.50;110072;1258;22205;-79
2022/07/04 03:56:49;;;;;;;8.90;8.00;;;;;;;17.64;66.45;100479.66;110216;1256;24284;-79
2022/07/04 03:59:19;;;;;;;8.90;8.00;;;;;;;17.69;66.47;100476.48;110188;1253;23570;-79
2022/07/04 04:01:52;;;;;;;9.00;7.30;;;;;;;17.76;66.58;100477.75;110691;1253;23027;-79
2022/07/04 04:07:12;;;;;;;7.80;7.00;;;;;;;17.84;66.41;100474.02;111110;1250;23698;-79
2022/07/04 04:09:43;;;;;;;8.00;6.80;;;;;;;17.92;66.41;100476.87;110840;1253;23058;-79
2022/07/04 04:12:12;;;;;;;13.20;7.40;;;;;;;17.99;66.21;100474.86;110508;1253;22021;-80
2022/07/04 04:14:42;;;;;;;8.10;7.40;;;;;;;18.03;66.00;100475.66;110740;1253;22965;-80
2022/07/04 04:17:21;;;;;;;9.00;7.90;;;;;;;18.09;66.15;100474.10;110966;1253;23590;-81
2022/07/04 04:19:53;;;;;;;8.30;7.50;;;;;;;18.20;66.05;100477.83;110891;1253;21956;-81
2022/07/04 04:22:27;;;;;;;8.50;7.60;;;;;;;18.27;65.97;100474.70;110712;1253;21957;-81
2022/07/04 04:24:58;;;;;;;9.90;7.30;;;;;;;18.36;65.82;100467.02;110865;1253;21972;-79
2022/07/04 04:27:27;;;;;;;10.40;7.40;;;;;;;18.42;65.62;100463.71;110385;1256;22418;-81
2022/07/04 04:30:01;;;;;;;9.10;8.20;;;;;;;18.50;65.57;100465.17;110254;1256;21971;-80
2022/07/04 04:32:37;;;;;;;9.50;7.50;;;;;;;18.59;65.59;100471.11;110313;1256;22340;-80
2022/07/04 04:35:10;;;;;;;8.30;7.50;;;;;;;18.71;65.44;100475.82;109875;1259;23043;-79
2022/07/04 04:37:46;;;;;;;8.90;8.10;;;;;;;18.81;65.23;100474.02;109810;1261;21972;-81
2022/07/04 04:40:26;;;;;;;11.90;8.00;;;;;;;18.93;65.11;100474.70;110044;1262;21968;-81
2022/07/04 04:43:07;;;;;;;10.10;7.90;;;;;;;19.06;64.97;100470.12;109623;1262;24087;-80
2022/07/04 04:45:44;;;;;;;10.90;9.10;;;;;;;19.19;64.69;100469.17;109863;1262;22036;-79
2022/07/04 04:48:27;;;;;;;13.60;8.10;;;;;;;19.30;64.41;100468.23;109895;1262;22019;-81
2022/07/04 04:50:56;;;;;;;11.30;8.20;;;;;;;19.41;64.20;100467.38;109833;1261;21973;-81
2022/07/04 04:53:26;;;;;;;10.30;8.30;;;;;;;19.53;64.02;100462.38;110621;1252;22502;-81
2022/07/04 04:56:01;;;;;;;10.60;8.80;;;;;;;19.65;63.76;100460.90;110878;1253;21967;-80
2022/07/04 04:58:31;;;;;;;10.10;8.30;;;;;;;19.76;63.45;100462.55;110026;1261;22070;-80
2022/07/04 05:01:02;;;;;;;9.80;8.70;;;;;;;19.87;63.21;100459.44;110352;1258;23660;-82
2022/07/04 05:03:55;;;;;;;11.60;9.10;;;;;;;20.00;63.00;100460.75;110022;1261;21973;-80
2022/07/04 05:06:27;;;;;;;11.90;8.50;;;;;;;20.14;62.87;100468.44;110154;1260;23037;-78
2022/07/04 05:09:01;;;;;;;9.10;8.20;;;;;;;20.32;62.75;100467.92;110046;1260;23678;-79
2022/07/04 05:11:33;;;;;;;10.70;7.90;;;;;;;20.50;62.42;100460.83;110042;1258;23581;-79
2022/07/04 05:14:08;;;;;;;10.80;8.20;;;;;;;20.65;61.99;100460.35;109826;1264;21976;-78
2022/07/04 05:16:37;;;;;;;10.60;8.50;;;;;;;20.80;61.63;100462.41;109497;1264;22214;-79
2022/07/04 05:19:11;;;;;;;13.90;8.70;;;;;;;20.94;61.35;100466.46;109576;1263;22022;-80
2022/07/04 05:21:40;;;;;;;11.60;8.10;;;;;;;21.10;61.01;100463.83;109557;1262;22935;-79
2022/07/04 05:24:11;;;;;;;12.30;8.40;;;;;;;21.25;60.75;100466.30;110124;1258;23833;-79
2022/07/04 05:26:40;;;;;;;9.60;8.00;;;;;;;21.43;60.43;100465.42;109693;1262;23069;-80
2022/07/04 05:29:09;;;;;;;8.80;8.00;;;;;;;21.63;60.25;100462.61;109733;1261;21966;-81
2022/07/04 05:31:39;;;;;;;9.30;8.50;;;;;;;21.82;59.71;100460.58;109974;1256;24297;-81
2022/07/04 05:34:08;;;;;;;10.40;8.30;;;;;;;22.04;59.27;100457.75;110510;1256;23218;-81
2022/07/04 05:36:37;;;;;;;18.90;9.50;;;;;;;22.26;58.85;100461.24;110473;1256;23048;-83
2022/07/04 05:39:06;;;;;;;12.50;8.10;;;;;;;22.50;58.43;100463.69;110457;1260;21968;-82
2022/07/04 05:41:35;;;;;;;15.00;9.20;;;;;;;22.76;58.10;100468.11;110011;1260;23564;-81
2022/07/04 05:44:05;;;;;;;10.60;9.30;;;;;;;23.06;57.65;100470.59;109936;1256;21987;-82
2022/07/04 05:46:35;;;;;;;9.70;8.40;;;;;;;23.38;56.82;100471.67;110492;1256;22752;-83
2022/07/04 05:49:04;;;;;;;10.20;8.70;;;;;;;23.74;56.54;100475.27;110808;1253;23622;-81
2022/07/04 05:51:36;;;;;;;10.80;7.30;;;;;;;24.12;55.12;100479.59;110139;1260;22830;-81
2022/07/04 05:54:05;;;;;;;12.40;8.00;;;;;;;24.43;53.93;100482.39;110208;1260;22089;-81
2022/07/04 05:56:34;;;;;;;15.80;8.60;;;;;;;24.75;53.10;100481.90;110178;1256;23036;-82
2022/07/04 05:59:03;;;;;;;11.70;8.50;;;;;;;25.04;51.73;100482.77;110765;1256;21956;-82
2022/07/04 06:01:32;;;;;;;10.90;8.50;;;;;;;25.37;51.64;100484.77;109859;1261;22232;-81
2022/07/04 06:04:09;;;;;;;10.30;6.70;;;;;;;25.78;51.02;100483.60;109843;1261;21976;-82
2022/07/04 06:06:38;;;;;;;9.60;7.30;;;;;;;26.17;50.09;100479.22;109423;1262;22668;-81
2022/07/04 06:09:07;;;;;;;8.00;6.30;;;;;;;26.56;49.25;100481.38;109715;1256;21957;-81
2022/07/04 06:11:42;;;;;;;7.40;6.70;;;;;;;26.89;47.89;100488.70;110135;1256;23707;-81
2022/07/04 06:14:11;;;;;;;7.80;6.30;;;;;;;27.19;47.09;100488.52;110395;1257;23081;-80
2022/07/04 06:16:40;;;;;;;9.40;6.40;;;;;;;27.44;46.42;100491.05;110503;1256;23047;-81
2022/07/04 06:19:09;;;;;;;7.00;6.20;;;;;;;27.68;45.54;100493.73;110258;1256;21934;-81
2022/07/04 06:21:41;;;;;;;9.00;6.50;;;;;;;27.96;45.24;100493.98;110497;1253;23001;-82
2022/07/04 06:24:14;;;;;;;7.00;6.30;;;;;;;28.29;44.60;100494.17;110201;1259;22219;-83
2022/07/04 06:26:43;;;;;;;7.50;6.10;;;;;;;28.55;43.64;100491.88;109891;1259;21965;-82
2022/07/04 06:29:15;;;;;;;8.10;6.20;;;;;;;28.81;43.30;100491.50;109876;1262;23012;-82
2022/07/04 06:31:49;;;;;;;9.80;5.80;;;;;;;29.00;42.23;100494.48;109707;1260;21974;-82
2022/07/04 06:37:06;;;;;;;7.20;5.20;;;;;;;29.58;42.07;100492.39;109965;1256;22034;-79
2022/07/04 06:39:38;;;;;;;11.30;6.40;;;;;;;29.95;41.24;100493.40;110563;1256;23716;-82
2022/07/04 06:42:08;;;;;;;10.40;5.60;;;;;;;30.30;40.70;100488.59;110690;1251;22161;-76
2022/07/04 06:44:39;;;;;;;6.40;5.80;;;;;;;30.59;39.51;100490.36;110751;1252;21969;-79
2022/07/04 06:47:09;;;;;;;7.90;4.40;;;;;;;30.84;38.97;100488.78;110530;1253;23692;-79
2022/07/04 06:49:41;;;;;;;4.70;4.20;;;;;;;31.08;38.39;100486.05;110723;1253;21965;-80
2022/07/04 06:52:10;;;;;;;7.50;4.10;;;;;;;31.29;37.26;100484.73;110228;1258;22071;-79
2022/07/04 06:54:40;;;;;;;7.50;4.50;;;;;;;31.43;36.33;100483.98;110301;1258;22765;-77
2022/07/04 06:57:18;;;;;;;9.90;4.20;;;;;;;31.63;36.63;100488.92;110145;1256;23694;-77
2022/07/04 07:00:00;;;;;;;7.10;4.20;;;;;;;31.85;35.62;100488.07;110351;1257;22055;-80
2022/07/04 07:02:29;;;;;;;6.70;4.50;;;;;;;31.83;34.66;100489.20;109977;1258;22696;-81
2022/07/04 07:04:58;;;;;;;8.00;4.40;;;;;;;31.78;34.78;100490.40;110585;1256;21959;-79
2022/07/04 07:07:35;;;;;;;6.00;4.40;;;;;;;31.74;34.93;100489.39;110646;1256;23642;-81
2022/07/04 07:10:06;;;;;;;11.60;5.30;;;;;;;31.87;35.02;100485.77;110764;1250;21959;-82
2022/07/04 07:12:35;;;;;;;5.60;4.30;;;;;;;31.98;35.21;100489.16;110870;1253;23664;-81
2022/07/04 07:15:18;;;;;;;9.50;4.50;;;;;;;32.02;34.48;100490.23;110901;1250;21956;-84
2022/07/04 07:17:49;;;;;;;6.60;3.60;;;;;;;32.03;34.68;100484.45;111050;1253;23720;-82
2022/07/04 07:20:21;;;;;;;9.10;4.30;;;;;;;32.20;34.87;100483.25;110946;1253;21974;-82
2022/07/04 07:22:50;;;;;;;7.10;4.10;;;;;;;32.31;34.37;100488.73;110643;1254;24371;-84
2022/07/04 07:25:24;;;;;;;5.40;3.70;;;;;;;32.29;33.67;100485.60;110530;1254;21979;-84
2022/07/04 07:27:56;;;;;;;5.50;3.80;;;;;;;32.35;34.12;100482.55;109973;1260;22035;-84
2022/07/04 07:30:33;;;;;;;7.50;3.90;;;;;;;32.63;34.09;100487.45;109837;1264;23621;-82
2022/07/04 07:33:07;;;;;;;4.80;3.70;;;;;;;32.74;33.56;100483.52;110035;1264;22581;-83
2022/07/04 07:35:38;;;;;;;4.60;3.70;;;;;;;32.87;33.56;100481.39;110329;1264;21997;-82
2022/07/04 07:38:07;;;;;;;8.50;3.30;;;;;;;32.98;32.71;100474.70;109374;1267;21988;-83
2022/07/04 07:40:37;;;;;;;;;;;;;;;33.11;32.72;100479.45;109507;1262;21972;-81
2022/07/04 07:43:13;;;;;;;46.20;7.70;;;;;;;32.96;31.68;100477.16;109834;1263;21983;-81
2022/07/04 07:45:46;;;;;;;9.50;3.30;;;;;;;32.88;32.97;100476.05;109583;1261;21958;-80
2022/07/04 07:48:22;;;;;;;5.20;3.30;;;;;;;33.16;33.40;100480.77;109965;1257;21972;-81
2022/07/04 07:51:05;;;;;;;5.00;3.50;;;;;;;33.45;32.89;100480.74;109864;1261;21984;-82
2022/07/04 07:53:41;;;;;;;6.10;2.60;;;;;;;33.63;31.57;100479.08;110054;1260;22106;-81
2022/07/04 07:56:42;;;;;;;10.40;3.50;;;;;;;33.69;31.43;100478.79;109887;1263;21986;-82
2022/07/04 07:59:23;;;;;;;7.00;3.00;;;;;;;33.69;31.30;100482.68;109864;1260;21972;-83
2022/07/04 08:04:33;;;;;;;6.30;3.20;;;;;;;33.62;30.78;100485.91;109925;1260;22154;-82
2022/07/04 08:05:29;;;;;;;4.30;2.60;;;;;;;33.73;30.62;100482.02;110384;1257;21972;-82
2022/07/04 08:08:07;;;;;;;7.90;5.30;;;;;;;33.90;30.61;100480.84;110402;1255;21977;-82
2022/07/04 08:10:50;;;;;;;6.40;3.80;;;;;;;33.95;29.61;100478.97;110884;1253;21976;-82
2022/07/04 08:13:23;;;;;;;5.20;2.90;;;;;;;34.07;30.07;100479.45;110814;1253;23476;-82
2022/07/04 08:16:04;;;;;;;7.50;2.70;;;;;;;34.09;29.18;100473.59;110659;1253;21986;-81
2022/07/04 08:19:12;;;;;;;5.00;3.20;;;;;;;33.85;28.95;100470.46;110874;1253;22435;-82
2022/07/04 08:21:41;;;;;;;7.50;2.70;;;;;;;33.97;29.68;100469.79;110769;1253;21967;-82
2022/07/04 08:24:32;;;;;;;;;;;;;;;34.13;29.26;100469.30;110878;1251;23299;-82
2022/07/04 08:27:23;;;;;;;3.30;2.30;;;;;;;34.18;28.98;100467.14;110886;1253;22097;-82
2022/07/04 08:30:08;;;;;;;5.80;2.50;;;;;;;34.15;29.44;100466.02;110378;1257;21958;-82
2022/07/04 08:32:49;;;;;;;4.10;2.00;;;;;;;34.32;29.39;100459.89;110411;1257;22107;-82
2022/07/04 08:35:24;;;;;;;4.80;2.10;;;;;;;34.48;28.14;100458.92;109967;1262;23594;-82
2022/07/04 08:37:55;;;;;;;6.20;2.10;;;;;;;34.56;27.46;100458.52;109782;1262;23128;-82
2022/07/04 08:40:29;;;;;;;4.20;1.90;;;;;;;34.68;27.79;100460.51;109824;1262;21963;-81
2022/07/04 08:43:04;;;;;;;2.90;2.00;;;;;;;34.75;27.08;100458.54;109198;1265;22050;-81
2022/07/04 08:45:42;;;;;;;3.10;2.60;;;;;;;34.64;27.36;100453.47;109147;1267;21977;-82
2022/07/04 08:48:33;;;;;;;2.60;2.10;;;;;;;34.58;27.71;100446.86;109688;1262;22138;-81
2022/07/04 08:51:46;;;;;;;4.00;2.30;;;;;;;34.43;26.84;100443.58;109950;1263;22013;-81
2022/07/04 08:59:55;;;;;;;3.30;2.00;;;;;;;34.60;27.45;100432.88;110489;1258;23776;-81
2022/07/04 09:02:27;;;;;;;7.30;1.70;;;;;;;34.92;27.18;100435.02;110676;1251;21967;-80
2022/07/04 09:05:03;;;;;;;3.20;1.80;;;;;;;34.93;26.68;100434.52;110994;1250;21960;-81
2022/07/04 09:07:35;;;;;;;4.10;2.00;;;;;;;34.94;26.92;100433.52;110941;1251;21956;-82
2022/07/04 09:10:11;;;;;;;5.20;2.40;;;;;;;34.75;25.82;100431.80;110355;1256;22299;-81
2022/07/04 09:12:43;;;;;;;3.30;1.50;;;;;;;34.29;26.10;100430.15;110688;1256;22001;-81
2022/07/04 09:15:40;;;;;;;3.00;1.90;;;;;;;33.66;26.37;100431.11;110677;1256;22079;-81
2022/07/04 09:18:31;;;;;;;6.40;2.10;;;;;;;33.27;27.22;100428.50;110663;1257;23092;-82
2022/07/04 09:21:09;;;;;;;4.80;2.30;;;;;;;33.13;28.07;100428.92;110560;1256;23715;-81
2022/07/04 09:23:42;;;;;;;5.10;2.60;;;;;;;33.11;28.50;100430.17;110485;1257;22403;-82
2022/07/04 09:26:20;;;;;;;3.00;2.30;;;;;;;33.03;29.00;100428.92;110632;1257;22416;-82
2022/07/04 09:28:56;;;;;;;3.90;2.90;;;;;;;32.84;29.33;100426.19;110701;1253;22413;-80
2022/07/04 09:31:31;;;;;;;3.10;2.40;;;;;;;32.52;29.98;100425.81;110815;1254;22777;-81
2022/07/04 09:34:07;;;;;;;4.40;2.40;;;;;;;32.38;30.41;100423.50;110936;1253;21980;-82
2022/07/04 09:36:44;;;;;;;3.30;2.90;;;;;;;32.28;30.42;100429.69;110284;1258;22049;-82
2022/07/04 09:39:20;;;;;;;4.90;2.60;;;;;;;32.24;30.41;100433.95;110240;1259;22436;-81
2022/07/04 09:42:02;;;;;;;4.20;2.80;;;;;;;32.18;30.36;100437.54;110235;1258;21971;-81
2022/07/04 09:44:46;;;;;;;3.60;2.60;;;;;;;32.03;30.33;100435.36;110292;1257;22140;-82
2022/07/04 09:47:27;;;;;;;4.80;2.40;;;;;;;31.90;30.70;100434.80;110181;1258;22154;-82
2022/07/04 09:50:14;;;;;;;4.50;2.70;;;;;;;31.87;31.02;100433.65;110449;1257;22026;-81
2022/07/04 09:53:05;;;;;;;5.40;2.40;;;;;;;31.79;30.93;100438.41;110571;1257;23693;-81
2022/07/04 09:55:38;;;;;;;3.40;2.10;;;;;;;31.56;31.23;100439.87;110576;1257;22428;-80
2022/07/04 09:58:17;;;;;;;6.50;2.70;;;;;;;31.54;31.90;100440.65;110003;1262;21974;-81
2022/07/04 10:00:51;;;;;;;29.70;3.80;;;;;;;31.82;32.24;100444.52;109991;1254;21977;-78
2022/07/04 10:03:30;;;;;;;9.90;3.00;;;;;;;32.19;32.00;100445.06;110481;1254;23027;-77
2022/07/04 10:06:15;;;;;;;30.30;4.50;;;;;;;32.24;31.43;100444.82;110437;1256;21950;-74
2022/07/04 10:08:47;;;;;;;19.90;3.30;;;;;;;32.07;31.66;100443.42;110480;1256;21952;-77
2022/07/04 10:11:18;;;;;;;7.60;3.00;;;;;;;32.09;31.93;100443.32;110138;1260;23590;-77
2022/07/04 10:13:50;;;;;;;3.50;2.80;;;;;;;32.24;31.87;100443.17;109937;1261;23713;-76
2022/07/04 10:16:19;;;;;;;2.80;2.50;;;;;;;32.33;32.03;100440.66;110349;1257;21966;-76
2022/07/04 10:18:49;;;;;;;3.60;2.90;;;;;;;32.47;32.08;100433.22;110365;1257;21975;-76
2022/07/04 10:21:18;;;;;;;10.00;2.90;;;;;;;32.66;32.08;100436.46;110040;1260;22023;-75
2022/07/04 10:23:49;;;;;;;7.40;4.00;;;;;;;32.84;31.47;100443.05;110427;1256;23171;-76
2022/07/04 10:26:23;;;;;;;12.10;5.40;;;;;;;32.93;30.86;100441.98;110344;1258;23666;-76
2022/07/04 10:28:56;;;;;;;9.70;3.70;;;;;;;33.01;30.92;100442.05;110082;1253;23628;-77
2022/07/04 10:31:40;;;;;;;5.20;2.40;;;;;;;33.09;30.40;100443.49;110857;1251;21975;-76
2022/07/04 10:34:09;;;;;;;5.20;2.40;;;;;;;33.09;30.20;100443.55;110882;1251;22383;-76
2022/07/04 10:36:38;;;;;;;3.70;2.40;;;;;;;33.09;29.97;100441.84;110622;1253;23591;-77
2022/07/04 10:39:07;;;;;;;5.20;2.80;;;;;;;33.17;30.41;100440.45;110881;1254;21966;-77
2022/07/04 10:41:57;;;;;;;3.60;2.20;;;;;;;33.28;29.87;100439.23;110582;1254;22030;-78
2022/07/04 10:44:26;;;;;;;2.30;2.10;;;;;;;33.24;29.44;100433.69;110374;1257;21975;-77
2022/07/04 10:46:57;;;;;;;3.80;2.60;;;;;;;33.19;29.34;100429.20;110442;1257;23887;-78
2022/07/04 10:49:39;;;;;;;3.10;2.40;;;;;;;33.20;29.49;100434.69;110433;1259;22008;-76
2022/07/04 10:52:14;;;;;;;5.20;2.50;;;;;;;33.19;29.15;100436.80;110126;1262;24300;-78
2022/07/04 10:54:44;;;;;;;5.10;2.10;;;;;;;33.11;29.39;100434.67;109963;1261;23742;-76
2022/07/04 10:57:23;;;;;;;8.00;2.60;;;;;;;33.05;29.62;100436.85;109799;1263;21982;-77
2022/07/04 11:00:01;;;;;;;3.60;2.70;;;;;;;32.96;29.45;100431.14;109204;1263;23616;-78
2022/07/04 11:02:36;;;;;;;4.20;3.10;;;;;;;32.77;29.67;100432.13;110101;1257;21968;-78
2022/07/04 11:05:14;;;;;;;3.90;2.60;;;;;;;32.65;30.09;100425.77;110364;1257;24215;-77
2022/07/04 11:07:51;;;;;;;3.10;2.40;;;;;;;32.58;30.27;100421.64;110406;1257;22265;-78
2022/07/04 11:11:05;;;;;;;9.20;4.10;;;;;;;32.40;30.15;100416.89;110629;1251;23085;-77
2022/07/04 11:13:39;;;;;;;14.90;2.90;;;;;;;32.27;30.49;100413.74;110667;1251;23577;-77
2022/07/04 11:16:08;;;;;;;26.50;7.60;;;;;;;32.22;30.65;100414.38;110698;1253;23807;-77
2022/07/04 11:18:42;;;;;;;7.10;3.70;;;;;;;32.23;31.09;100408.05;110466;1259;21965;-76
2022/07/04 11:21:19;;;;;;;9.10;4.70;;;;;;;32.18;31.17;100412.88;110212;1257;21992;-79
2022/07/04 11:23:58;;;;;;;6.40;3.20;;;;;;;32.15;31.58;100416.08;110491;1254;23566;-78
2022/07/04 11:26:32;;;;;;;3.70;2.60;;;;;;;32.09;31.35;100411.91;110344;1254;23665;-79
2022/07/04 11:29:05;;;;;;;4.70;2.50;;;;;;;31.97;31.03;100406.30;110500;1254;21950;-78
2022/07/04 11:31:48;;;;;;;4.00;2.10;;;;;;;31.91;30.83;100403.37;110488;1257;21968;-78
2022/07/04 11:34:24;;;;;;;4.10;1.90;;;;;;;31.80;30.45;100400.86;110557;1257;22859;-77
2022/07/04 11:36:53;;;;;;;4.50;2.00;;;;;;;31.76;30.64;100399.22;110470;1254;23707;-77
2022/07/04 11:39:31;;;;;;;4.90;2.30;;;;;;;31.74;30.44;100395.27;110607;1254;22028;-77
2022/07/04 11:47:42;;;;;;;2.50;2.00;;;;;;;31.74;30.88;100391.16;110644;1254;22326;-78
2022/07/04 11:50:19;;;;;;;3.20;2.00;;;;;;;31.78;30.81;100386.48;110508;1251;21996;-78
2022/07/04 11:52:53;;;;;;;2.90;2.40;;;;;;;31.67;30.93;100389.95;110796;1254;22734;-77
2022/07/04 11:55:56;;;;;;;4.00;2.10;;;;;;;31.49;31.44;100387.02;110548;1254;22255;-77
2022/07/04 11:58:40;;;;;;;4.70;2.10;;;;;;;31.42;32.10;100377.65;110531;1254;23618;-78
2022/07/04 12:01:11;;;;;;;2.50;1.80;;;;;;;31.47;32.25;100372.52;110564;1254;23090;-78
2022/07/04 12:03:44;;;;;;;3.50;2.40;;;;;;;31.53;32.32;100368.56;110664;1253;23568;-78
2022/07/04 12:06:26;;;;;;;;;;;;;;;;;;;;;
2022/07/04 12:09:00;;;;;;;5.00;2.10;;;;;;;31.52;32.15;100358.75;110827;1254;23590;-77
2022/07/04 12:11:59;;;;;;;7.30;2.10;;;;;;;31.52;32.09;100362.84;110565;1254;23066;-77
2022/07/04 12:14:31;;;;;;;5.20;2.80;;;;;;;31.60;32.27;100361.14;110494;1256;22004;-78
2022/07/04 12:17:13;;;;;;;5.00;3.00;;;;;;;31.66;31.90;100361.15;110473;1254;21981;-77
2022/07/04 12:19:57;;;;;;;4.00;2.20;;;;;;;31.66;31.85;100366.55;110603;1254;398665;-77
2022/07/04 12:22:42;;;;;;;3.90;2.10;;;;;;;31.57;32.24;100368.19;110571;1256;24377;-78
2022/07/04 12:25:45;;;;;;;9.40;3.50;;;;;;;31.51;32.74;100367.99;110557;1255;22321;-77
2022/07/04 12:28:18;;;;;;;7.80;3.20;;;;;;;31.47;33.03;100361.22;109765;1264;22340;-78
2022/07/04 12:30:57;;;;;;;;;;;;;;;31.43;32.91;100365.48;109738;1263;21955;-77
2022/07/04 12:33:29;;;;;;;6.10;2.20;;;;;;;31.25;33.19;100369.91;109773;1262;23024;-78
2022/07/04 12:36:06;;;;;;;3.30;2.40;;;;;;;31.06;33.90;100377.45;110005;1260;22605;-78
2022/07/04 12:38:41;;;;;;;2.80;2.20;;;;;;;30.84;34.70;100378.66;109100;1266;21993;-77